sensor_id;sensor_type;location;lat;lon;timestamp;P1;durP1;ratioP1;P2;durP2;ratioP2
56670;SDS011;42545;50.054;8.306;2023-05-15T00:00:42;2.25;;;2.00;;
56670;SDS011;42545;50.054;8.306;2023-05-15T00:03:09;3.28;;;2.13;;
56670;SDS011;42545;50.054;8.306;2023-05-15T00:05:37;1.95;;;1.75;;
56670;SDS011;42545;50.054;8.306;2023-05-15T00:08:04;1.90;;;1.60;;
56670;SDS011;42545;50.054;8.306;2023-05-15T00:10:32;2.50;;;1.90;;
56670;SDS011;42545;50.054;8.306;2023-05-15T00:12:59;1.63;;;1.50;;
56670;SDS011;42545;50.054;8.306;2023-05-15T00:15:25;1.90;;;1.63;;
56670;SDS011;42545;50.054;8.306;2023-05-15T00:17:52;1.98;;;1.77;;
56670;SDS011;42545;50.054;8.306;2023-05-15T00:20:19;2.10;;;1.90;;
56670;SDS011;42545;50.054;8.306;2023-05-15T00:22:46;1.63;;;1.50;;
56670;SDS011;42545;50.054;8.306;2023-05-15T00:25:12;1.50;;;1.40;;
56670;SDS011;42545;50.054;8.306;2023-05-15T00:27:40;1.60;;;1.50;;
56670;SDS011;42545;50.054;8.306;2023-05-15T00:30:10;1.50;;;1.40;;
56670;SDS011;42545;50.054;8.306;2023-05-15T00:32:38;1.40;;;1.30;;
56670;SDS011;42545;50.054;8.306;2023-05-15T00:35:05;1.60;;;1.30;;
56670;SDS011;42545;50.054;8.306;2023-05-15T00:37:32;2.00;;;1.80;;
56670;SDS011;42545;50.054;8.306;2023-05-15T00:39:58;1.67;;;1.58;;
56670;SDS011;42545;50.054;8.306;2023-05-15T00:42:25;1.80;;;1.50;;
56670;SDS011;42545;50.054;8.306;2023-05-15T00:44:55;2.08;;;1.70;;
56670;SDS011;42545;50.054;8.306;2023-05-15T00:47:23;1.60;;;1.50;;
56670;SDS011;42545;50.054;8.306;2023-05-15T00:49:52;1.92;;;1.67;;
56670;SDS011;42545;50.054;8.306;2023-05-15T00:52:19;1.52;;;1.40;;
56670;SDS011;42545;50.054;8.306;2023-05-15T00:54:46;1.40;;;1.30;;
56670;SDS011;42545;50.054;8.306;2023-05-15T00:57:14;1.60;;;1.40;;
56670;SDS011;42545;50.054;8.306;2023-05-15T00:59:42;1.40;;;1.30;;
56670;SDS011;42545;50.054;8.306;2023-05-15T01:02:12;1.20;;;1.10;;
56670;SDS011;42545;50.054;8.306;2023-05-15T01:04:40;1.35;;;1.13;;
56670;SDS011;42545;50.054;8.306;2023-05-15T01:07:07;1.25;;;1.00;;
56670;SDS011;42545;50.054;8.306;2023-05-15T01:09:34;1.17;;;1.08;;
56670;SDS011;42545;50.054;8.306;2023-05-15T01:12:02;1.00;;;0.90;;
56670;SDS011;42545;50.054;8.306;2023-05-15T01:14:31;1.38;;;1.10;;
56670;SDS011;42545;50.054;8.306;2023-05-15T01:16:58;1.30;;;1.10;;
56670;SDS011;42545;50.054;8.306;2023-05-15T01:19:26;1.10;;;1.00;;
56670;SDS011;42545;50.054;8.306;2023-05-15T01:24:56;0.98;;;0.77;;
56670;SDS011;42545;50.054;8.306;2023-05-15T01:27:39;0.70;;;0.70;;
56670;SDS011;42545;50.054;8.306;2023-05-15T01:30:11;0.70;;;0.70;;
56670;SDS011;42545;50.054;8.306;2023-05-15T01:32:42;0.80;;;0.80;;
56670;SDS011;42545;50.054;8.306;2023-05-15T01:35:20;0.70;;;0.70;;
56670;SDS011;42545;50.054;8.306;2023-05-15T01:37:50;0.70;;;0.70;;
56670;SDS011;42545;50.054;8.306;2023-05-15T01:40:22;0.70;;;0.70;;
56670;SDS011;42545;50.054;8.306;2023-05-15T01:42:53;0.82;;;0.82;;
56670;SDS011;42545;50.054;8.306;2023-05-15T01:45:20;0.80;;;0.80;;
56670;SDS011;42545;50.054;8.306;2023-05-15T01:47:49;1.67;;;0.85;;
56670;SDS011;42545;50.054;8.306;2023-05-15T01:50:19;0.70;;;0.70;;
56670;SDS011;42545;50.054;8.306;2023-05-15T01:52:47;0.82;;;0.70;;
56670;SDS011;42545;50.054;8.306;2023-05-15T01:55:19;0.80;;;0.80;;
56670;SDS011;42545;50.054;8.306;2023-05-15T01:57:47;1.00;;;0.90;;
56670;SDS011;42545;50.054;8.306;2023-05-15T02:00:20;0.70;;;0.70;;
56670;SDS011;42545;50.054;8.306;2023-05-15T02:02:50;0.65;;;0.65;;
56670;SDS011;42545;50.054;8.306;2023-05-15T02:05:19;0.80;;;0.80;;
56670;SDS011;42545;50.054;8.306;2023-05-15T02:07:46;0.82;;;0.80;;
56670;SDS011;42545;50.054;8.306;2023-05-15T02:10:13;0.73;;;0.70;;
56670;SDS011;42545;50.054;8.306;2023-05-15T02:12:44;0.70;;;0.70;;
56670;SDS011;42545;50.054;8.306;2023-05-15T02:15:12;1.10;;;0.80;;
56670;SDS011;42545;50.054;8.306;2023-05-15T02:17:40;0.90;;;0.80;;
56670;SDS011;42545;50.054;8.306;2023-05-15T02:20:09;0.80;;;0.80;;
56670;SDS011;42545;50.054;8.306;2023-05-15T02:22:35;1.00;;;0.90;;
56670;SDS011;42545;50.054;8.306;2023-05-15T02:25:02;1.08;;;1.00;;
56670;SDS011;42545;50.054;8.306;2023-05-15T02:27:32;0.90;;;0.90;;
56670;SDS011;42545;50.054;8.306;2023-05-15T02:30:06;1.00;;;0.90;;
56670;SDS011;42545;50.054;8.306;2023-05-15T02:32:44;0.70;;;0.70;;
56670;SDS011;42545;50.054;8.306;2023-05-15T02:35:16;0.70;;;0.70;;
56670;SDS011;42545;50.054;8.306;2023-05-15T02:37:48;0.80;;;0.80;;
56670;SDS011;42545;50.054;8.306;2023-05-15T02:42:45;1.13;;;0.90;;
56670;SDS011;42545;50.054;8.306;2023-05-15T02:45:12;0.80;;;0.80;;
56670;SDS011;42545;50.054;8.306;2023-05-15T02:47:44;0.90;;;0.90;;
56670;SDS011;42545;50.054;8.306;2023-05-15T02:50:14;0.80;;;0.80;;
56670;SDS011;42545;50.054;8.306;2023-05-15T02:52:44;1.17;;;1.08;;
56670;SDS011;42545;50.054;8.306;2023-05-15T02:55:11;0.77;;;0.77;;
56670;SDS011;42545;50.054;8.306;2023-05-15T02:57:38;0.80;;;0.80;;
56670;SDS011;42545;50.054;8.306;2023-05-15T03:00:05;0.93;;;0.90;;
56670;SDS011;42545;50.054;8.306;2023-05-15T03:02:35;1.15;;;1.05;;
56670;SDS011;42545;50.054;8.306;2023-05-15T03:05:04;0.95;;;0.88;;
56670;SDS011;42545;50.054;8.306;2023-05-15T03:07:31;1.13;;;1.02;;
56670;SDS011;42545;50.054;8.306;2023-05-15T03:09:59;0.98;;;0.90;;
56670;SDS011;42545;50.054;8.306;2023-05-15T03:12:25;1.10;;;1.00;;
56670;SDS011;42545;50.054;8.306;2023-05-15T03:14:52;1.10;;;1.00;;
56670;SDS011;42545;50.054;8.306;2023-05-15T03:17:18;1.00;;;0.90;;
56670;SDS011;42545;50.054;8.306;2023-05-15T03:19:47;1.20;;;0.95;;
56670;SDS011;42545;50.054;8.306;2023-05-15T03:22:16;1.17;;;1.08;;
56670;SDS011;42545;50.054;8.306;2023-05-15T03:24:42;1.08;;;0.98;;
56670;SDS011;42545;50.054;8.306;2023-05-15T03:27:09;1.10;;;1.00;;
56670;SDS011;42545;50.054;8.306;2023-05-15T03:29:35;1.02;;;0.85;;
56670;SDS011;42545;50.054;8.306;2023-05-15T03:32:03;0.90;;;0.90;;
56670;SDS011;42545;50.054;8.306;2023-05-15T03:34:30;1.05;;;0.93;;
56670;SDS011;42545;50.054;8.306;2023-05-15T03:36:56;0.98;;;0.90;;
56670;SDS011;42545;50.054;8.306;2023-05-15T03:39:24;1.00;;;0.90;;
56670;SDS011;42545;50.054;8.306;2023-05-15T03:41:51;1.10;;;1.00;;
56670;SDS011;42545;50.054;8.306;2023-05-15T03:44:18;1.00;;;0.90;;
56670;SDS011;42545;50.054;8.306;2023-05-15T03:46:45;1.38;;;1.27;;
56670;SDS011;42545;50.054;8.306;2023-05-15T03:49:14;1.23;;;1.10;;
56670;SDS011;42545;50.054;8.306;2023-05-15T03:51:41;1.30;;;1.20;;
56670;SDS011;42545;50.054;8.306;2023-05-15T03:54:09;1.27;;;1.10;;
56670;SDS011;42545;50.054;8.306;2023-05-15T03:56:37;0.82;;;0.82;;
56670;SDS011;42545;50.054;8.306;2023-05-15T03:59:04;1.38;;;1.20;;
56670;SDS011;42545;50.054;8.306;2023-05-15T04:01:31;0.80;;;0.80;;
56670;SDS011;42545;50.054;8.306;2023-05-15T04:03:57;1.00;;;0.90;;
56670;SDS011;42545;50.054;8.306;2023-05-15T04:06:26;0.80;;;0.80;;
56670;SDS011;42545;50.054;8.306;2023-05-15T04:08:53;1.27;;;1.17;;
56670;SDS011;42545;50.054;8.306;2023-05-15T04:11:22;1.15;;;1.05;;
56670;SDS011;42545;50.054;8.306;2023-05-15T04:13:51;1.08;;;1.00;;
56670;SDS011;42545;50.054;8.306;2023-05-15T04:16:17;1.05;;;0.98;;
56670;SDS011;42545;50.054;8.306;2023-05-15T04:18:44;1.40;;;1.30;;
56670;SDS011;42545;50.054;8.306;2023-05-15T04:21:11;1.30;;;1.20;;
56670;SDS011;42545;50.054;8.306;2023-05-15T04:23:38;1.30;;;1.20;;
56670;SDS011;42545;50.054;8.306;2023-05-15T04:26:05;1.10;;;1.02;;
56670;SDS011;42545;50.054;8.306;2023-05-15T04:28:32;1.20;;;1.10;;
56670;SDS011;42545;50.054;8.306;2023-05-15T04:31:00;1.10;;;1.00;;
56670;SDS011;42545;50.054;8.306;2023-05-15T04:33:26;1.02;;;0.90;;
56670;SDS011;42545;50.054;8.306;2023-05-15T04:35:53;1.20;;;1.10;;
56670;SDS011;42545;50.054;8.306;2023-05-15T04:38:20;0.80;;;0.80;;
56670;SDS011;42545;50.054;8.306;2023-05-15T04:40:48;1.10;;;1.00;;
56670;SDS011;42545;50.054;8.306;2023-05-15T04:43:15;1.30;;;1.05;;
56670;SDS011;42545;50.054;8.306;2023-05-15T04:45:42;0.80;;;0.80;;
56670;SDS011;42545;50.054;8.306;2023-05-15T04:48:10;0.73;;;0.70;;
56670;SDS011;42545;50.054;8.306;2023-05-15T04:50:37;0.80;;;0.80;;
56670;SDS011;42545;50.054;8.306;2023-05-15T04:53:04;0.77;;;0.77;;
56670;SDS011;42545;50.054;8.306;2023-05-15T04:55:31;0.70;;;0.70;;
56670;SDS011;42545;50.054;8.306;2023-05-15T04:57:57;0.95;;;0.90;;
56670;SDS011;42545;50.054;8.306;2023-05-15T05:00:24;0.80;;;0.80;;
56670;SDS011;42545;50.054;8.306;2023-05-15T05:02:51;0.63;;;0.63;;
56670;SDS011;42545;50.054;8.306;2023-05-15T05:08:04;0.68;;;0.68;;
56670;SDS011;42545;50.054;8.306;2023-05-15T05:10:31;0.75;;;0.70;;
56670;SDS011;42545;50.054;8.306;2023-05-15T05:12:57;0.80;;;0.80;;
56670;SDS011;42545;50.054;8.306;2023-05-15T05:15:24;0.70;;;0.70;;
56670;SDS011;42545;50.054;8.306;2023-05-15T05:17:51;0.80;;;0.80;;
56670;SDS011;42545;50.054;8.306;2023-05-15T05:20:18;0.85;;;0.80;;
56670;SDS011;42545;50.054;8.306;2023-05-15T05:22:46;0.80;;;0.80;;
56670;SDS011;42545;50.054;8.306;2023-05-15T05:25:13;0.70;;;0.70;;
56670;SDS011;42545;50.054;8.306;2023-05-15T05:27:40;0.70;;;0.70;;
56670;SDS011;42545;50.054;8.306;2023-05-15T05:30:08;0.70;;;0.70;;
56670;SDS011;42545;50.054;8.306;2023-05-15T05:32:35;0.70;;;0.70;;
56670;SDS011;42545;50.054;8.306;2023-05-15T05:35:02;0.80;;;0.80;;
56670;SDS011;42545;50.054;8.306;2023-05-15T05:37:29;1.10;;;1.00;;
56670;SDS011;42545;50.054;8.306;2023-05-15T05:39:57;0.95;;;0.80;;
56670;SDS011;42545;50.054;8.306;2023-05-15T05:42:24;1.05;;;1.00;;
56670;SDS011;42545;50.054;8.306;2023-05-15T05:44:51;0.90;;;0.90;;
56670;SDS011;42545;50.054;8.306;2023-05-15T05:47:17;1.40;;;1.30;;
56670;SDS011;42545;50.054;8.306;2023-05-15T05:49:44;1.50;;;1.40;;
56670;SDS011;42545;50.054;8.306;2023-05-15T05:52:12;1.52;;;1.35;;
56670;SDS011;42545;50.054;8.306;2023-05-15T05:54:39;1.55;;;1.33;;
56670;SDS011;42545;50.054;8.306;2023-05-15T05:57:07;1.27;;;1.17;;
56670;SDS011;42545;50.054;8.306;2023-05-15T05:59:34;2.08;;;1.80;;
56670;SDS011;42545;50.054;8.306;2023-05-15T06:02:01;1.85;;;1.65;;
56670;SDS011;42545;50.054;8.306;2023-05-15T06:04:29;2.33;;;2.08;;
56670;SDS011;42545;50.054;8.306;2023-05-15T06:06:57;2.78;;;2.55;;
56670;SDS011;42545;50.054;8.306;2023-05-15T06:09:24;2.58;;;2.10;;
56670;SDS011;42545;50.054;8.306;2023-05-15T06:11:51;3.63;;;2.78;;
56670;SDS011;42545;50.054;8.306;2023-05-15T06:14:19;2.67;;;2.20;;
56670;SDS011;42545;50.054;8.306;2023-05-15T06:16:46;3.00;;;2.30;;
56670;SDS011;42545;50.054;8.306;2023-05-15T06:19:12;3.13;;;2.30;;
56670;SDS011;42545;50.054;8.306;2023-05-15T06:21:39;2.60;;;2.30;;
56670;SDS011;42545;50.054;8.306;2023-05-15T06:24:06;2.67;;;2.10;;
56670;SDS011;42545;50.054;8.306;2023-05-15T06:26:33;4.20;;;2.58;;
56670;SDS011;42545;50.054;8.306;2023-05-15T06:29:00;2.80;;;2.50;;
56670;SDS011;42545;50.054;8.306;2023-05-15T06:31:28;3.53;;;2.78;;
56670;SDS011;42545;50.054;8.306;2023-05-15T06:33:54;3.05;;;2.70;;
56670;SDS011;42545;50.054;8.306;2023-05-15T06:36:21;4.28;;;3.22;;
56670;SDS011;42545;50.054;8.306;2023-05-15T06:38:48;2.53;;;2.33;;
56670;SDS011;42545;50.054;8.306;2023-05-15T06:41:14;3.63;;;3.10;;
56670;SDS011;42545;50.054;8.306;2023-05-15T06:43:41;2.97;;;2.67;;
56670;SDS011;42545;50.054;8.306;2023-05-15T06:46:07;2.70;;;2.38;;
56670;SDS011;42545;50.054;8.306;2023-05-15T06:48:36;7.95;;;5.25;;
56670;SDS011;42545;50.054;8.306;2023-05-15T06:51:02;3.53;;;3.15;;
56670;SDS011;42545;50.054;8.306;2023-05-15T06:53:29;3.90;;;3.25;;
56670;SDS011;42545;50.054;8.306;2023-05-15T06:55:56;4.28;;;3.55;;
56670;SDS011;42545;50.054;8.306;2023-05-15T06:58:23;4.20;;;3.65;;
56670;SDS011;42545;50.054;8.306;2023-05-15T07:00:50;4.18;;;3.78;;
56670;SDS011;42545;50.054;8.306;2023-05-15T07:03:17;3.20;;;2.80;;
56670;SDS011;42545;50.054;8.306;2023-05-15T07:05:45;3.25;;;2.88;;
56670;SDS011;42545;50.054;8.306;2023-05-15T07:08:11;3.28;;;2.97;;
56670;SDS011;42545;50.054;8.306;2023-05-15T07:10:38;3.20;;;2.85;;
56670;SDS011;42545;50.054;8.306;2023-05-15T07:13:06;3.00;;;2.70;;
56670;SDS011;42545;50.054;8.306;2023-05-15T07:15:32;4.45;;;3.28;;
56670;SDS011;42545;50.054;8.306;2023-05-15T07:17:59;5.80;;;4.40;;
56670;SDS011;42545;50.054;8.306;2023-05-15T07:20:25;4.40;;;3.67;;
56670;SDS011;42545;50.054;8.306;2023-05-15T07:22:54;4.00;;;3.60;;
56670;SDS011;42545;50.054;8.306;2023-05-15T07:25:20;8.25;;;5.07;;
56670;SDS011;42545;50.054;8.306;2023-05-15T07:27:47;10.27;;;6.55;;
56670;SDS011;42545;50.054;8.306;2023-05-15T07:30:13;12.60;;;7.60;;
56670;SDS011;42545;50.054;8.306;2023-05-15T07:32:40;8.60;;;6.05;;
56670;SDS011;42545;50.054;8.306;2023-05-15T07:35:07;8.95;;;5.82;;
56670;SDS011;42545;50.054;8.306;2023-05-15T07:37:35;9.18;;;6.53;;
56670;SDS011;42545;50.054;8.306;2023-05-15T07:40:04;13.48;;;8.80;;
56670;SDS011;42545;50.054;8.306;2023-05-15T07:42:31;10.05;;;7.40;;
56670;SDS011;42545;50.054;8.306;2023-05-15T07:44:57;10.38;;;7.03;;
56670;SDS011;42545;50.054;8.306;2023-05-15T07:47:24;8.65;;;6.38;;
56670;SDS011;42545;50.054;8.306;2023-05-15T07:49:51;9.35;;;6.63;;
56670;SDS011;42545;50.054;8.306;2023-05-15T07:52:17;9.20;;;7.03;;
56670;SDS011;42545;50.054;8.306;2023-05-15T07:54:44;10.52;;;7.78;;
56670;SDS011;42545;50.054;8.306;2023-05-15T07:57:12;13.18;;;9.38;;
56670;SDS011;42545;50.054;8.306;2023-05-15T07:59:39;13.15;;;8.35;;
56670;SDS011;42545;50.054;8.306;2023-05-15T08:02:06;10.30;;;7.78;;
56670;SDS011;42545;50.054;8.306;2023-05-15T08:04:32;9.75;;;6.10;;
56670;SDS011;42545;50.054;8.306;2023-05-15T08:06:59;8.18;;;6.22;;
56670;SDS011;42545;50.054;8.306;2023-05-15T08:09:26;10.98;;;7.50;;
56670;SDS011;42545;50.054;8.306;2023-05-15T08:11:54;11.70;;;7.57;;
56670;SDS011;42545;50.054;8.306;2023-05-15T08:14:23;10.37;;;7.13;;
56670;SDS011;42545;50.054;8.306;2023-05-15T08:16:50;8.50;;;6.10;;
56670;SDS011;42545;50.054;8.306;2023-05-15T08:19:16;9.75;;;7.07;;
56670;SDS011;42545;50.054;8.306;2023-05-15T08:21:43;9.43;;;6.88;;
56670;SDS011;42545;50.054;8.306;2023-05-15T08:24:09;9.48;;;6.93;;
56670;SDS011;42545;50.054;8.306;2023-05-15T08:26:36;15.77;;;9.98;;
56670;SDS011;42545;50.054;8.306;2023-05-15T08:29:02;10.27;;;7.25;;
56670;SDS011;42545;50.054;8.306;2023-05-15T08:31:30;13.98;;;9.02;;
56670;SDS011;42545;50.054;8.306;2023-05-15T08:33:57;10.00;;;7.25;;
56670;SDS011;42545;50.054;8.306;2023-05-15T08:36:24;9.93;;;6.82;;
56670;SDS011;42545;50.054;8.306;2023-05-15T08:38:51;15.48;;;9.90;;
56670;SDS011;42545;50.054;8.306;2023-05-15T08:41:20;11.10;;;7.20;;
56670;SDS011;42545;50.054;8.306;2023-05-15T08:43:55;13.10;;;8.68;;
56670;SDS011;42545;50.054;8.306;2023-05-15T08:46:23;13.02;;;9.43;;
56670;SDS011;42545;50.054;8.306;2023-05-15T08:48:52;10.40;;;7.40;;
56670;SDS011;42545;50.054;8.306;2023-05-15T08:51:21;13.55;;;9.20;;
56670;SDS011;42545;50.054;8.306;2023-05-15T08:53:49;12.68;;;8.77;;
56670;SDS011;42545;50.054;8.306;2023-05-15T08:56:16;13.35;;;9.10;;
56670;SDS011;42545;50.054;8.306;2023-05-15T08:58:44;13.05;;;8.80;;
56670;SDS011;42545;50.054;8.306;2023-05-15T09:01:11;14.70;;;8.75;;
56670;SDS011;42545;50.054;8.306;2023-05-15T09:03:41;12.10;;;8.15;;
56670;SDS011;42545;50.054;8.306;2023-05-15T09:06:10;15.82;;;10.13;;
56670;SDS011;42545;50.054;8.306;2023-05-15T09:08:37;14.68;;;9.57;;
56670;SDS011;42545;50.054;8.306;2023-05-15T09:11:06;17.15;;;10.52;;
56670;SDS011;42545;50.054;8.306;2023-05-15T09:13:33;15.23;;;9.70;;
56670;SDS011;42545;50.054;8.306;2023-05-15T09:16:00;12.32;;;8.82;;
56670;SDS011;42545;50.054;8.306;2023-05-15T09:18:26;11.35;;;7.93;;
56670;SDS011;42545;50.054;8.306;2023-05-15T09:20:55;12.48;;;9.00;;
56670;SDS011;42545;50.054;8.306;2023-05-15T09:23:44;12.80;;;7.88;;
56670;SDS011;42545;50.054;8.306;2023-05-15T09:26:11;14.68;;;8.98;;
56670;SDS011;42545;50.054;8.306;2023-05-15T09:28:38;14.57;;;9.38;;
56670;SDS011;42545;50.054;8.306;2023-05-15T09:31:04;17.70;;;9.82;;
56670;SDS011;42545;50.054;8.306;2023-05-15T09:33:33;17.98;;;10.70;;
56670;SDS011;42545;50.054;8.306;2023-05-15T09:36:01;18.20;;;10.40;;
56670;SDS011;42545;50.054;8.306;2023-05-15T09:38:31;14.05;;;9.38;;
56670;SDS011;42545;50.054;8.306;2023-05-15T09:41:05;23.58;;;12.45;;
56670;SDS011;42545;50.054;8.306;2023-05-15T09:43:34;21.60;;;12.45;;
56670;SDS011;42545;50.054;8.306;2023-05-15T09:46:02;19.90;;;11.75;;
56670;SDS011;42545;50.054;8.306;2023-05-15T09:48:31;15.40;;;9.15;;
56670;SDS011;42545;50.054;8.306;2023-05-15T09:50:57;14.63;;;8.32;;
56670;SDS011;42545;50.054;8.306;2023-05-15T09:53:24;15.65;;;9.88;;
56670;SDS011;42545;50.054;8.306;2023-05-15T09:55:51;13.45;;;9.13;;
56670;SDS011;42545;50.054;8.306;2023-05-15T09:58:19;15.63;;;10.02;;
56670;SDS011;42545;50.054;8.306;2023-05-15T10:00:47;12.60;;;8.65;;
56670;SDS011;42545;50.054;8.306;2023-05-15T10:03:14;12.27;;;8.85;;
56670;SDS011;42545;50.054;8.306;2023-05-15T10:05:42;13.02;;;9.10;;
56670;SDS011;42545;50.054;8.306;2023-05-15T10:08:09;17.30;;;10.57;;
56670;SDS011;42545;50.054;8.306;2023-05-15T10:10:36;13.38;;;9.60;;
56670;SDS011;42545;50.054;8.306;2023-05-15T10:13:03;14.15;;;9.05;;
56670;SDS011;42545;50.054;8.306;2023-05-15T10:15:33;12.88;;;8.98;;
56670;SDS011;42545;50.054;8.306;2023-05-15T10:18:00;15.20;;;9.82;;
56670;SDS011;42545;50.054;8.306;2023-05-15T10:20:29;11.90;;;7.93;;
56670;SDS011;42545;50.054;8.306;2023-05-15T10:22:56;12.10;;;7.90;;
56670;SDS011;42545;50.054;8.306;2023-05-15T10:25:25;14.57;;;9.98;;
56670;SDS011;42545;50.054;8.306;2023-05-15T10:27:58;10.88;;;7.80;;
56670;SDS011;42545;50.054;8.306;2023-05-15T10:30:25;13.32;;;8.95;;
56670;SDS011;42545;50.054;8.306;2023-05-15T10:32:55;13.02;;;9.20;;
56670;SDS011;42545;50.054;8.306;2023-05-15T10:35:21;14.23;;;8.80;;
56670;SDS011;42545;50.054;8.306;2023-05-15T10:37:49;12.02;;;8.95;;
56670;SDS011;42545;50.054;8.306;2023-05-15T10:40:16;11.73;;;8.32;;
56670;SDS011;42545;50.054;8.306;2023-05-15T10:42:43;15.85;;;10.57;;
56670;SDS011;42545;50.054;8.306;2023-05-15T10:45:11;12.43;;;8.82;;
56670;SDS011;42545;50.054;8.306;2023-05-15T10:47:39;14.73;;;9.02;;
56670;SDS011;42545;50.054;8.306;2023-05-15T10:50:08;11.40;;;8.25;;
56670;SDS011;42545;50.054;8.306;2023-05-15T10:52:37;11.45;;;8.52;;
56670;SDS011;42545;50.054;8.306;2023-05-15T10:55:05;13.57;;;8.70;;
56670;SDS011;42545;50.054;8.306;2023-05-15T10:57:33;12.25;;;8.85;;
56670;SDS011;42545;50.054;8.306;2023-05-15T11:00:00;13.77;;;9.35;;
56670;SDS011;42545;50.054;8.306;2023-05-15T11:02:29;13.30;;;9.18;;
56670;SDS011;42545;50.054;8.306;2023-05-15T11:04:58;10.93;;;7.57;;
56670;SDS011;42545;50.054;8.306;2023-05-15T11:07:27;12.25;;;7.78;;
56670;SDS011;42545;50.054;8.306;2023-05-15T11:09:54;15.35;;;9.95;;
56670;SDS011;42545;50.054;8.306;2023-05-15T11:12:21;11.48;;;8.27;;
56670;SDS011;42545;50.054;8.306;2023-05-15T11:20:33;13.65;;;8.65;;
56670;SDS011;42545;50.054;8.306;2023-05-15T11:23:04;11.63;;;8.70;;
56670;SDS011;42545;50.054;8.306;2023-05-15T11:25:32;10.07;;;7.95;;
56670;SDS011;42545;50.054;8.306;2023-05-15T11:28:01;13.13;;;9.70;;
56670;SDS011;42545;50.054;8.306;2023-05-15T11:30:33;10.90;;;7.78;;
56670;SDS011;42545;50.054;8.306;2023-05-15T11:33:01;14.00;;;9.02;;
56670;SDS011;42545;50.054;8.306;2023-05-15T11:35:33;13.25;;;9.00;;
56670;SDS011;42545;50.054;8.306;2023-05-15T11:38:01;11.88;;;8.57;;
56670;SDS011;42545;50.054;8.306;2023-05-15T11:40:31;9.85;;;7.55;;
56670;SDS011;42545;50.054;8.306;2023-05-15T11:43:15;8.52;;;7.07;;
56670;SDS011;42545;50.054;8.306;2023-05-15T11:45:44;9.38;;;6.55;;
56670;SDS011;42545;50.054;8.306;2023-05-15T11:48:12;11.40;;;7.82;;
56670;SDS011;42545;50.054;8.306;2023-05-15T11:50:41;7.22;;;6.03;;
56670;SDS011;42545;50.054;8.306;2023-05-15T11:53:09;7.05;;;5.53;;
56670;SDS011;42545;50.054;8.306;2023-05-15T11:55:39;7.53;;;5.45;;
56670;SDS011;42545;50.054;8.306;2023-05-15T11:58:10;9.55;;;7.47;;
56670;SDS011;42545;50.054;8.306;2023-05-15T12:00:38;8.20;;;6.78;;
56670;SDS011;42545;50.054;8.306;2023-05-15T12:03:04;13.93;;;9.15;;
56670;SDS011;42545;50.054;8.306;2023-05-15T12:05:31;11.32;;;9.15;;
56670;SDS011;42545;50.054;8.306;2023-05-15T12:07:57;12.50;;;7.10;;
56670;SDS011;42545;50.054;8.306;2023-05-15T12:10:26;9.63;;;8.00;;
56670;SDS011;42545;50.054;8.306;2023-05-15T12:12:54;7.85;;;6.45;;
56670;SDS011;42545;50.054;8.306;2023-05-15T12:15:22;6.95;;;5.95;;
56670;SDS011;42545;50.054;8.306;2023-05-15T12:17:48;9.25;;;6.47;;
56670;SDS011;42545;50.054;8.306;2023-05-15T12:20:16;6.68;;;5.63;;
56670;SDS011;42545;50.054;8.306;2023-05-15T12:22:43;13.00;;;8.40;;
56670;SDS011;42545;50.054;8.306;2023-05-15T12:25:10;10.05;;;7.18;;
56670;SDS011;42545;50.054;8.306;2023-05-15T12:27:38;8.63;;;7.20;;
56670;SDS011;42545;50.054;8.306;2023-05-15T12:30:07;8.10;;;6.50;;
56670;SDS011;42545;50.054;8.306;2023-05-15T12:32:35;10.75;;;7.90;;
56670;SDS011;42545;50.054;8.306;2023-05-15T12:35:03;9.82;;;7.38;;
56670;SDS011;42545;50.054;8.306;2023-05-15T12:37:31;7.68;;;6.13;;
56670;SDS011;42545;50.054;8.306;2023-05-15T12:40:00;6.53;;;5.83;;
56670;SDS011;42545;50.054;8.306;2023-05-15T12:42:36;5.18;;;4.60;;
56670;SDS011;42545;50.054;8.306;2023-05-15T12:45:10;4.57;;;4.07;;
56670;SDS011;42545;50.054;8.306;2023-05-15T12:47:40;9.20;;;5.70;;
56670;SDS011;42545;50.054;8.306;2023-05-15T12:50:12;6.57;;;5.90;;
56670;SDS011;42545;50.054;8.306;2023-05-15T12:52:44;6.57;;;4.90;;
56670;SDS011;42545;50.054;8.306;2023-05-15T12:55:14;7.30;;;5.75;;
56670;SDS011;42545;50.054;8.306;2023-05-15T12:57:42;6.93;;;5.20;;
56670;SDS011;42545;50.054;8.306;2023-05-15T13:00:09;8.75;;;7.28;;
56670;SDS011;42545;50.054;8.306;2023-05-15T13:02:39;8.23;;;5.50;;
56670;SDS011;42545;50.054;8.306;2023-05-15T13:05:08;12.40;;;8.63;;
56670;SDS011;42545;50.054;8.306;2023-05-15T13:07:35;8.73;;;6.70;;
56670;SDS011;42545;50.054;8.306;2023-05-15T13:10:03;8.77;;;6.15;;
56670;SDS011;42545;50.054;8.306;2023-05-15T13:12:34;7.40;;;6.05;;
56670;SDS011;42545;50.054;8.306;2023-05-15T13:15:01;7.90;;;5.97;;
56670;SDS011;42545;50.054;8.306;2023-05-15T13:17:28;8.45;;;6.68;;
56670;SDS011;42545;50.054;8.306;2023-05-15T13:19:57;7.75;;;5.78;;
56670;SDS011;42545;50.054;8.306;2023-05-15T13:22:23;10.45;;;7.95;;
56670;SDS011;42545;50.054;8.306;2023-05-15T13:24:50;7.68;;;5.78;;
56670;SDS011;42545;50.054;8.306;2023-05-15T13:27:17;5.57;;;4.85;;
56670;SDS011;42545;50.054;8.306;2023-05-15T13:29:43;7.97;;;5.68;;
56670;SDS011;42545;50.054;8.306;2023-05-15T13:32:10;6.13;;;4.95;;
56670;SDS011;42545;50.054;8.306;2023-05-15T13:34:37;5.30;;;4.40;;
56670;SDS011;42545;50.054;8.306;2023-05-15T13:37:06;4.32;;;3.70;;
56670;SDS011;42545;50.054;8.306;2023-05-15T13:39:33;5.93;;;4.05;;
56670;SDS011;42545;50.054;8.306;2023-05-15T13:41:59;5.53;;;4.00;;
56670;SDS011;42545;50.054;8.306;2023-05-15T13:44:26;6.88;;;3.55;;
56670;SDS011;42545;50.054;8.306;2023-05-15T13:46:53;3.33;;;3.03;;
56670;SDS011;42545;50.054;8.306;2023-05-15T13:49:19;4.95;;;3.10;;
56670;SDS011;42545;50.054;8.306;2023-05-15T13:51:46;4.65;;;4.00;;
56670;SDS011;42545;50.054;8.306;2023-05-15T13:54:14;6.43;;;3.95;;
56670;SDS011;42545;50.054;8.306;2023-05-15T13:56:40;5.55;;;4.32;;
56670;SDS011;42545;50.054;8.306;2023-05-15T13:59:07;6.72;;;5.32;;
56670;SDS011;42545;50.054;8.306;2023-05-15T14:01:34;7.70;;;5.65;;
56670;SDS011;42545;50.054;8.306;2023-05-15T14:04:00;5.88;;;5.10;;
56670;SDS011;42545;50.054;8.306;2023-05-15T14:06:28;5.85;;;4.60;;
56670;SDS011;42545;50.054;8.306;2023-05-15T14:08:55;5.55;;;4.85;;
56670;SDS011;42545;50.054;8.306;2023-05-15T14:11:23;5.53;;;4.88;;
56670;SDS011;42545;50.054;8.306;2023-05-15T14:13:50;6.45;;;4.47;;
56670;SDS011;42545;50.054;8.306;2023-05-15T14:16:18;6.07;;;5.00;;
56670;SDS011;42545;50.054;8.306;2023-05-15T14:18:45;5.68;;;5.05;;
56670;SDS011;42545;50.054;8.306;2023-05-15T14:21:11;6.15;;;3.88;;
56670;SDS011;42545;50.054;8.306;2023-05-15T14:23:38;8.13;;;4.07;;
56670;SDS011;42545;50.054;8.306;2023-05-15T14:26:04;3.97;;;3.58;;
56670;SDS011;42545;50.054;8.306;2023-05-15T14:28:33;5.90;;;4.07;;
56670;SDS011;42545;50.054;8.306;2023-05-15T14:30:59;4.88;;;3.58;;
56670;SDS011;42545;50.054;8.306;2023-05-15T14:33:26;6.03;;;4.10;;
56670;SDS011;42545;50.054;8.306;2023-05-15T14:35:52;3.67;;;3.20;;
56670;SDS011;42545;50.054;8.306;2023-05-15T14:38:20;5.35;;;4.22;;
56670;SDS011;42545;50.054;8.306;2023-05-15T14:40:47;8.07;;;4.70;;
56670;SDS011;42545;50.054;8.306;2023-05-15T14:43:13;3.90;;;3.50;;
56670;SDS011;42545;50.054;8.306;2023-05-15T14:45:43;4.78;;;3.30;;
56670;SDS011;42545;50.054;8.306;2023-05-15T14:48:10;4.40;;;3.40;;
56670;SDS011;42545;50.054;8.306;2023-05-15T14:50:36;10.00;;;4.07;;
56670;SDS011;42545;50.054;8.306;2023-05-15T14:53:03;8.00;;;5.00;;
56670;SDS011;42545;50.054;8.306;2023-05-15T14:55:29;5.13;;;4.22;;
56670;SDS011;42545;50.054;8.306;2023-05-15T14:57:57;5.40;;;3.97;;
56670;SDS011;42545;50.054;8.306;2023-05-15T15:00:23;6.93;;;5.20;;